createdAt,value
2023-02-12T00:00:47.755Z,19.80
2023-02-12T00:03:14.641Z,19.07
2023-02-12T00:05:41.847Z,19.17
2023-02-12T00:08:09.431Z,18.83
2023-02-12T00:10:41.040Z,19.47
2023-02-12T00:13:07.880Z,18.87
2023-02-12T00:15:34.999Z,18.87
2023-02-12T00:18:01.891Z,19.23
2023-02-12T00:20:28.712Z,20.67
2023-02-12T00:22:55.563Z,20.50
2023-02-12T00:25:22.629Z,19.33
2023-02-12T00:27:49.482Z,19.40
2023-02-12T00:30:17.560Z,19.33
2023-02-12T00:32:45.934Z,18.57
2023-02-12T00:35:13.289Z,19.00
2023-02-12T00:37:40.197Z,18.10
2023-02-12T00:40:07.795Z,18.33
2023-02-12T00:42:34.667Z,16.53
2023-02-12T00:45:01.608Z,17.90
2023-02-12T00:47:28.457Z,16.40
2023-02-12T00:49:55.252Z,16.13
2023-02-12T00:52:22.101Z,16.43
2023-02-12T00:54:48.915Z,15.53
2023-02-12T00:57:15.726Z,16.37
2023-02-12T00:59:43.021Z,17.07
2023-02-12T01:02:09.871Z,16.23
2023-02-12T01:04:36.830Z,15.77
2023-02-12T01:07:03.744Z,15.37
2023-02-12T01:09:30.622Z,15.30
2023-02-12T01:11:57.446Z,15.33
2023-02-12T01:14:24.323Z,15.33
2023-02-12T01:16:51.128Z,16.83
2023-02-12T01:19:17.951Z,16.30
2023-02-12T01:21:44.949Z,16.60
2023-02-12T01:24:11.785Z,15.60
2023-02-12T01:26:38.656Z,17.00
2023-02-12T01:29:07.434Z,17.13
2023-02-12T01:31:38.380Z,15.97
2023-02-12T01:34:06.993Z,16.97
2023-02-12T01:36:34.665Z,17.07
2023-02-12T01:39:03.112Z,17.80
2023-02-12T01:41:50.234Z,19.13
2023-02-12T01:44:21.067Z,18.20
2023-02-12T01:46:56.857Z,18.27
2023-02-12T01:49:38.510Z,19.40
2023-02-12T01:52:17.346Z,18.33
2023-02-12T01:54:44.386Z,16.57
2023-02-12T01:57:14.181Z,16.87
2023-02-12T01:59:45.824Z,17.73
2023-02-12T02:02:12.715Z,16.10
2023-02-12T02:04:50.621Z,16.20
2023-02-12T02:07:17.608Z,16.10
2023-02-12T02:09:45.030Z,16.57
2023-02-12T02:12:34.886Z,16.43
2023-02-12T02:15:03.293Z,16.00
2023-02-12T02:18:10.218Z,16.37
2023-02-12T02:21:00.750Z,16.17
2023-02-12T02:23:40.109Z,16.63
2023-02-12T02:26:33.921Z,16.27
2023-02-12T02:29:26.851Z,16.13
2023-02-12T02:32:10.242Z,16.73
2023-02-12T02:34:45.666Z,17.73
2023-02-12T02:37:24.216Z,17.00
2023-02-12T02:39:58.385Z,17.73
2023-02-12T02:42:29.112Z,15.73
2023-02-12T02:45:16.423Z,16.50
2023-02-12T02:48:00.375Z,16.50
2023-02-12T02:50:30.513Z,15.67
2023-02-12T02:53:06.232Z,15.27
2023-02-12T02:55:36.862Z,15.13
2023-02-12T02:58:16.271Z,15.57
2023-02-12T03:00:59.005Z,17.07
2023-02-12T03:03:56.795Z,15.27
2023-02-12T03:06:32.690Z,14.60
2023-02-12T03:09:06.212Z,15.13
2023-02-12T03:11:34.476Z,17.00
2023-02-12T03:14:31.564Z,15.73
2023-02-12T03:17:15.642Z,16.00
2023-02-12T03:19:47.236Z,14.93
2023-02-12T03:22:33.280Z,16.60
2023-02-12T03:25:14.299Z,15.37
2023-02-12T03:28:09.379Z,15.70
2023-02-12T03:30:44.629Z,15.90
2023-02-12T03:33:35.949Z,15.87
2023-02-12T03:36:21.740Z,16.63
2023-02-12T03:38:53.863Z,14.20
2023-02-12T03:41:37.244Z,16.60
2023-02-12T03:44:44.540Z,15.47
2023-02-12T03:47:33.526Z,15.00
2023-02-12T03:50:06.967Z,13.67
2023-02-12T03:52:34.481Z,14.17
2023-02-12T03:55:02.100Z,12.77
2023-02-12T03:57:34.297Z,13.93
2023-02-12T04:00:09.806Z,13.77
2023-02-12T04:02:36.906Z,13.17
2023-02-12T04:05:07.784Z,13.23
2023-02-12T04:07:36.747Z,13.60
2023-02-12T04:10:04.561Z,13.97
2023-02-12T04:12:43.781Z,14.67
2023-02-12T04:15:21.188Z,14.37
2023-02-12T04:18:02.605Z,12.57
2023-02-12T04:21:11.918Z,12.50
2023-02-12T04:23:47.649Z,11.33
2023-02-12T04:26:17.474Z,13.30
2023-02-12T04:29:03.176Z,12.67
2023-02-12T04:31:32.033Z,12.83
2023-02-12T04:34:07.908Z,14.77
2023-02-12T04:36:44.138Z,13.60
2023-02-12T04:39:17.413Z,12.97
2023-02-12T04:41:44.230Z,13.33
2023-02-12T04:44:32.433Z,12.87
2023-02-12T04:46:59.728Z,12.80
2023-02-12T04:49:27.751Z,11.97
2023-02-12T04:51:54.971Z,11.37
2023-02-12T04:54:23.295Z,12.10
2023-02-12T04:56:50.965Z,12.17
2023-02-12T04:59:18.096Z,11.87
2023-02-12T05:01:45.739Z,12.87
2023-02-12T05:04:15.550Z,11.97
2023-02-12T05:06:43.588Z,10.60
2023-02-12T05:09:15.976Z,10.77
2023-02-12T05:11:43.128Z,12.37
2023-02-12T05:14:10.282Z,12.93
2023-02-12T05:16:37.243Z,12.17
2023-02-12T05:19:04.184Z,12.73
2023-02-12T05:21:31.003Z,11.10
2023-02-12T05:23:57.821Z,12.60
2023-02-12T05:26:24.712Z,12.93
2023-02-12T05:28:51.562Z,11.63
2023-02-12T05:31:21.593Z,12.17
2023-02-12T05:33:49.980Z,11.80
2023-02-12T05:36:20.345Z,12.23
2023-02-12T05:38:47.998Z,11.20
2023-02-12T05:41:17.884Z,12.27
2023-02-12T05:43:49.148Z,13.63
2023-02-12T05:46:17.447Z,12.63
2023-02-12T05:48:44.902Z,12.90
2023-02-12T05:51:22.234Z,12.83
2023-02-12T05:53:51.348Z,11.67
2023-02-12T05:56:29.471Z,13.27
2023-02-12T05:59:03.526Z,12.93
2023-02-12T06:01:34.082Z,12.60
2023-02-12T06:04:03.033Z,12.80
2023-02-12T06:06:30.872Z,12.73
2023-02-12T06:08:58.140Z,13.20
2023-02-12T06:11:25.491Z,12.63
2023-02-12T06:13:52.571Z,12.80
2023-02-12T06:16:21.235Z,13.03
2023-02-12T06:18:48.367Z,13.40
2023-02-12T06:21:16.032Z,14.17
2023-02-12T06:23:43.292Z,14.23
2023-02-12T06:26:10.503Z,13.53
2023-02-12T06:28:37.651Z,15.50
2023-02-12T06:31:05.293Z,15.17
2023-02-12T06:33:33.065Z,15.17
2023-02-12T06:36:03.889Z,13.03
2023-02-12T06:38:30.684Z,12.60
2023-02-12T06:40:57.497Z,13.83
2023-02-12T06:43:24.377Z,12.57
2023-02-12T06:45:52.118Z,12.63
2023-02-12T06:48:18.932Z,13.40
2023-02-12T06:50:45.759Z,12.27
2023-02-12T06:53:12.723Z,11.73
2023-02-12T06:55:39.540Z,12.90
2023-02-12T06:58:06.352Z,12.10
2023-02-12T07:00:33.261Z,12.87
2023-02-12T07:03:00.691Z,12.40
2023-02-12T07:05:27.565Z,13.67
2023-02-12T07:07:54.403Z,12.07
2023-02-12T07:10:21.224Z,11.73
2023-02-12T07:12:48.078Z,13.20
2023-02-12T07:15:15.580Z,13.47
2023-02-12T07:17:42.430Z,14.83
2023-02-12T07:20:09.717Z,12.33
2023-02-12T07:22:37.205Z,13.77
2023-02-12T07:25:04.412Z,13.90
2023-02-12T07:27:31.294Z,13.67
2023-02-12T07:29:58.118Z,15.10
2023-02-12T07:32:24.982Z,13.63
2023-02-12T07:34:51.784Z,14.63
2023-02-12T07:37:22.687Z,14.97
2023-02-12T07:39:49.961Z,15.77
2023-02-12T07:42:17.085Z,15.73
2023-02-12T07:44:44.886Z,14.87
2023-02-12T07:47:11.731Z,15.57
2023-02-12T07:49:38.540Z,14.33
2023-02-12T07:52:05.353Z,15.50
2023-02-12T07:54:32.686Z,14.47
2023-02-12T07:57:00.771Z,15.47
2023-02-12T07:59:28.620Z,14.67
2023-02-12T08:01:56.536Z,16.20
2023-02-12T08:04:25.449Z,17.07
2023-02-12T08:06:54.498Z,15.73
2023-02-12T08:09:27.367Z,17.63
2023-02-12T08:11:54.504Z,17.90
2023-02-12T08:14:22.135Z,19.87
2023-02-12T08:16:50.262Z,18.27
2023-02-12T08:19:21.128Z,14.77
2023-02-12T08:21:54.469Z,15.20
2023-02-12T08:24:24.581Z,13.27
2023-02-12T08:26:52.141Z,12.37
2023-02-12T08:29:21.879Z,12.93
2023-02-12T08:31:50.388Z,12.83
2023-02-12T08:34:20.520Z,12.43
2023-02-12T08:36:49.740Z,13.27
2023-02-12T08:39:18.257Z,12.47
2023-02-12T08:41:45.532Z,12.87
2023-02-12T08:44:13.649Z,12.60
2023-02-12T08:46:46.899Z,12.10
2023-02-12T08:49:26.148Z,11.60
2023-02-12T08:51:55.278Z,11.90
2023-02-12T08:54:25.083Z,13.20
2023-02-12T08:56:59.089Z,13.30
2023-02-12T08:59:26.671Z,12.53
2023-02-12T09:01:54.689Z,13.37
2023-02-12T09:04:25.298Z,12.87
2023-02-12T09:06:53.227Z,13.13
2023-02-12T09:09:20.281Z,12.63
2023-02-12T09:11:47.494Z,13.77
2023-02-12T09:14:16.837Z,13.03
2023-02-12T09:16:44.708Z,12.70
2023-02-12T09:19:13.534Z,12.47
2023-02-12T09:21:40.831Z,11.43
2023-02-12T09:24:08.569Z,11.40
2023-02-12T09:26:35.861Z,11.37
2023-02-12T09:29:04.271Z,11.30
2023-02-12T09:31:32.980Z,10.53
2023-02-12T09:34:06.396Z,9.87
2023-02-12T09:36:33.974Z,9.73
2023-02-12T09:39:01.182Z,10.70
2023-02-12T09:42:06.881Z,10.60
2023-02-12T09:44:58.207Z,11.23
2023-02-12T09:48:00.752Z,9.77
2023-02-12T09:50:33.473Z,10.00
2023-02-12T09:53:01.142Z,9.97
2023-02-12T09:55:32.055Z,9.83
2023-02-12T09:58:02.390Z,9.53
2023-02-12T10:00:31.920Z,9.27
2023-02-12T10:03:05.498Z,9.53
2023-02-12T10:05:43.078Z,9.30
2023-02-12T10:08:50.101Z,9.30
2023-02-12T10:11:38.552Z,9.37
2023-02-12T10:14:23.430Z,10.03
2023-02-12T10:17:29.213Z,9.00
2023-02-12T10:20:07.964Z,9.10
2023-02-12T10:23:08.611Z,8.30
2023-02-12T10:25:48.307Z,8.70
2023-02-12T10:28:23.941Z,9.30
2023-02-12T10:31:12.129Z,10.57
2023-02-12T10:33:46.378Z,10.53
2023-02-12T10:36:22.410Z,9.47
2023-02-12T10:38:56.007Z,9.40
2023-02-12T10:41:24.768Z,9.97
2023-02-12T10:43:51.981Z,9.03
2023-02-12T10:46:19.427Z,8.87
2023-02-12T10:48:50.258Z,9.77
2023-02-12T10:51:44.613Z,11.43
2023-02-12T10:54:34.940Z,11.17
2023-02-12T10:57:24.103Z,10.17
2023-02-12T10:59:54.532Z,9.63
2023-02-12T11:02:32.743Z,10.40
2023-02-12T11:05:15.981Z,10.93
2023-02-12T11:07:52.764Z,8.53
2023-02-12T11:10:38.257Z,10.10
2023-02-12T11:13:06.185Z,8.83
2023-02-12T11:15:48.850Z,8.50
2023-02-12T11:18:35.153Z,8.83
2023-02-12T11:21:12.425Z,9.10
2023-02-12T11:23:44.014Z,8.60
2023-02-12T11:26:19.962Z,9.70
2023-02-12T11:29:16.365Z,9.70
2023-02-12T11:31:43.404Z,8.97
2023-02-12T11:34:17.003Z,10.00
2023-02-12T11:36:49.985Z,9.60
2023-02-12T11:39:32.479Z,10.57
2023-02-12T11:42:20.055Z,10.80
2023-02-12T11:44:52.298Z,12.83
2023-02-12T11:47:23.234Z,12.33
2023-02-12T11:49:59.098Z,11.33
2023-02-12T11:52:28.685Z,10.73
2023-02-12T11:54:59.428Z,10.73
2023-02-12T11:57:44.907Z,10.60
2023-02-12T12:00:35.669Z,9.77
2023-02-12T12:03:36.956Z,10.57
2023-02-12T12:06:20.092Z,8.10
2023-02-12T12:08:53.814Z,9.23
2023-02-12T12:11:29.575Z,10.37
2023-02-12T12:14:16.953Z,9.70
2023-02-12T12:17:07.303Z,8.80
2023-02-12T12:19:59.569Z,7.93
2023-02-12T12:22:51.003Z,7.77
2023-02-12T12:25:58.118Z,7.87
2023-02-12T12:28:53.702Z,6.63
2023-02-12T12:31:28.856Z,5.93
2023-02-12T12:34:10.112Z,6.97
2023-02-12T12:36:39.821Z,7.00
2023-02-12T12:39:21.352Z,6.53
2023-02-12T12:41:56.626Z,6.23
2023-02-12T12:44:41.393Z,6.37
2023-02-12T12:47:19.696Z,5.80
2023-02-12T12:50:13.632Z,5.73
2023-02-12T12:52:52.978Z,6.13
2023-02-12T12:55:22.853Z,6.60
2023-02-12T12:58:29.452Z,6.00
2023-02-12T13:01:05.450Z,5.57
2023-02-12T13:04:00.188Z,5.20
2023-02-12T13:07:13.098Z,5.30
2023-02-12T13:09:45.674Z,4.23
2023-02-12T13:12:40.401Z,3.83
2023-02-12T13:15:25.559Z,4.60
2023-02-12T13:18:21.391Z,5.10
2023-02-12T13:21:00.167Z,6.10
2023-02-12T13:23:41.727Z,5.70
2023-02-12T13:26:20.482Z,5.73
2023-02-12T13:29:10.015Z,5.47
2023-02-12T13:31:45.537Z,5.17
2023-02-12T13:34:15.189Z,4.80
2023-02-12T13:36:42.785Z,4.60
2023-02-12T13:39:39.606Z,4.20
2023-02-12T13:42:27.461Z,6.33
2023-02-12T13:45:15.429Z,7.00
2023-02-12T13:47:59.079Z,6.37
2023-02-12T13:50:40.983Z,6.37
2023-02-12T13:53:29.079Z,6.20
2023-02-12T13:56:10.157Z,5.93
2023-02-12T13:58:40.126Z,6.53
2023-02-12T14:01:09.808Z,5.53
2023-02-12T14:03:38.422Z,5.43
2023-02-12T14:06:11.342Z,5.87
2023-02-12T14:08:44.372Z,4.90
2023-02-12T14:11:21.681Z,5.07
2023-02-12T14:13:54.047Z,5.17
2023-02-12T14:16:38.800Z,4.50
2023-02-12T14:19:37.326Z,4.57
2023-02-12T14:22:27.272Z,4.33
2023-02-12T14:25:00.915Z,5.17
2023-02-12T14:27:33.825Z,6.00
2023-02-12T14:30:39.139Z,6.40
2023-02-12T14:33:07.061Z,6.07
2023-02-12T14:35:49.528Z,6.20
2023-02-12T14:38:16.316Z,6.13
2023-02-12T14:40:45.605Z,6.30
2023-02-12T14:43:58.109Z,7.10
2023-02-12T14:46:25.220Z,6.60
2023-02-12T14:48:56.412Z,6.23
2023-02-12T14:51:31.655Z,6.40
2023-02-12T14:54:00.788Z,6.50
2023-02-12T14:56:28.130Z,6.70
2023-02-12T14:58:58.800Z,5.70
2023-02-12T15:01:35.281Z,5.80
2023-02-12T15:04:20.523Z,5.17
2023-02-12T15:07:17.705Z,6.13
2023-02-12T15:09:52.317Z,5.07
2023-02-12T15:12:53.683Z,5.40
2023-02-12T15:15:27.385Z,5.30
2023-02-12T15:18:12.651Z,5.57
2023-02-12T15:20:48.313Z,4.40
2023-02-12T15:24:05.454Z,4.67
2023-02-12T15:26:36.547Z,5.30
2023-02-12T15:29:04.416Z,5.00
2023-02-12T15:31:32.638Z,6.37
2023-02-12T15:34:03.109Z,6.83
2023-02-12T15:36:33.278Z,6.80
2023-02-12T15:39:06.796Z,7.47
2023-02-12T15:41:33.571Z,8.20
2023-02-12T15:44:02.614Z,8.13
2023-02-12T15:46:30.198Z,9.40
2023-02-12T15:48:58.115Z,9.47
2023-02-12T15:51:35.483Z,10.00
2023-02-12T15:54:06.464Z,9.43
2023-02-12T15:56:36.507Z,10.50
2023-02-12T15:59:04.032Z,10.70
2023-02-12T16:01:34.022Z,9.83
2023-02-12T16:04:04.995Z,9.77
2023-02-12T16:06:34.811Z,10.00
2023-02-12T16:09:16.112Z,9.60
2023-02-12T16:11:46.268Z,10.53
2023-02-12T16:14:23.572Z,8.47
2023-02-12T16:16:52.981Z,8.67
2023-02-12T16:19:33.106Z,7.93
2023-02-12T16:22:06.199Z,8.53
2023-02-12T16:24:40.068Z,9.93
2023-02-12T16:27:19.823Z,8.30
2023-02-12T16:29:52.520Z,7.93
2023-02-12T16:32:39.691Z,7.43
2023-02-12T16:35:12.500Z,7.73
2023-02-12T16:37:39.322Z,7.03
2023-02-12T16:40:12.386Z,6.73
2023-02-12T16:43:01.905Z,7.07
2023-02-12T16:45:28.899Z,7.23
2023-02-12T16:48:13.093Z,6.80
2023-02-12T16:50:47.135Z,7.60
2023-02-12T16:53:32.067Z,8.37
2023-02-12T16:56:00.114Z,8.27
2023-02-12T16:58:28.623Z,8.37
2023-02-12T17:00:58.038Z,9.97
2023-02-12T17:03:25.433Z,11.80
2023-02-12T17:05:52.813Z,12.23
2023-02-12T17:08:22.453Z,13.33
2023-02-12T17:10:50.044Z,12.30
2023-02-12T17:13:17.684Z,11.53
2023-02-12T17:15:54.054Z,12.03
2023-02-12T17:18:21.784Z,11.80
2023-02-12T17:20:54.446Z,11.13
2023-02-12T17:23:21.737Z,10.80
2023-02-12T17:25:48.678Z,12.27
2023-02-12T17:28:15.890Z,12.00
2023-02-12T17:30:43.339Z,14.73
2023-02-12T17:33:11.001Z,15.57
2023-02-12T17:35:39.389Z,12.80
2023-02-12T17:38:06.840Z,12.13
2023-02-12T17:40:36.593Z,13.33
2023-02-12T17:43:05.163Z,12.73
2023-02-12T17:45:32.443Z,13.50
2023-02-12T17:47:59.537Z,14.07
2023-02-12T17:50:26.529Z,14.90
2023-02-12T17:52:53.443Z,12.83
2023-02-12T17:55:20.446Z,12.87
2023-02-12T17:57:52.312Z,12.40
2023-02-12T18:00:20.175Z,12.03
2023-02-12T18:02:47.399Z,11.73
2023-02-12T18:05:14.756Z,11.70
2023-02-12T18:07:42.195Z,11.57
2023-02-12T18:10:11.595Z,11.77
2023-02-12T18:12:38.870Z,13.27
2023-02-12T18:15:07.619Z,14.27
2023-02-12T18:17:35.571Z,16.70
2023-02-12T18:20:03.470Z,16.17
2023-02-12T18:22:30.503Z,15.93
2023-02-12T18:24:57.820Z,16.83
2023-02-12T18:27:24.763Z,18.13
2023-02-12T18:29:51.647Z,17.87
2023-02-12T18:32:18.636Z,17.43
2023-02-12T18:34:45.934Z,16.83
2023-02-12T18:37:13.899Z,16.23
2023-02-12T18:39:41.000Z,16.70
2023-02-12T18:42:08.127Z,16.10
2023-02-12T18:44:35.655Z,15.07
2023-02-12T18:47:02.644Z,14.23
2023-02-12T18:49:29.702Z,15.30
2023-02-12T18:51:57.243Z,14.60
2023-02-12T18:54:24.158Z,14.30
2023-02-12T18:56:53.147Z,14.57
2023-02-12T18:59:20.867Z,15.27
2023-02-12T19:01:50.794Z,15.93
2023-02-12T19:04:20.415Z,16.40
2023-02-12T19:06:53.201Z,16.43
2023-02-12T19:09:23.784Z,15.30
2023-02-12T19:11:53.272Z,16.30
2023-02-12T19:14:22.184Z,15.03
2023-02-12T19:16:50.240Z,15.90
2023-02-12T19:19:18.020Z,14.97
2023-02-12T19:21:44.934Z,16.57
2023-02-12T19:24:14.557Z,15.77
2023-02-12T19:26:41.860Z,16.20
2023-02-12T19:29:08.948Z,16.03
2023-02-12T19:31:39.383Z,16.33
2023-02-12T19:34:09.467Z,16.80
2023-02-12T19:36:37.276Z,16.57
2023-02-12T19:39:06.091Z,16.73
2023-02-12T19:41:35.908Z,16.67
2023-02-12T19:44:02.737Z,15.90
2023-02-12T19:46:31.326Z,14.90
2023-02-12T19:49:00.571Z,16.17
2023-02-12T19:51:32.616Z,14.93
2023-02-12T19:54:01.582Z,16.43
2023-02-12T19:56:28.813Z,16.10
2023-02-12T19:58:57.401Z,14.73
2023-02-12T20:01:24.886Z,15.73
2023-02-12T20:03:51.892Z,15.00
2023-02-12T20:06:22.094Z,14.93
2023-02-12T20:08:49.522Z,15.27
2023-02-12T20:11:20.239Z,14.83
2023-02-12T20:13:48.036Z,14.80
2023-02-12T20:16:18.035Z,13.80
2023-02-12T20:18:47.262Z,14.90
2023-02-12T20:21:25.796Z,14.93
2023-02-12T20:23:53.160Z,14.27
2023-02-12T20:26:23.597Z,15.00
2023-02-12T20:28:51.462Z,16.23
2023-02-12T20:31:22.411Z,15.43
2023-02-12T20:33:55.319Z,16.13
2023-02-12T20:36:23.174Z,15.47
2023-02-12T20:38:56.124Z,15.97
2023-02-12T20:41:24.538Z,15.13
2023-02-12T20:43:52.135Z,16.87
2023-02-12T20:46:22.733Z,16.27
2023-02-12T20:48:50.236Z,15.93
2023-02-12T20:51:22.943Z,16.23
2023-02-12T20:53:50.489Z,16.53
2023-02-12T20:56:20.032Z,17.50
2023-02-12T20:58:47.467Z,17.87
2023-02-12T21:01:31.582Z,17.30
2023-02-12T21:04:06.250Z,17.50
2023-02-12T21:06:33.879Z,17.30
2023-02-12T21:09:00.869Z,17.47
2023-02-12T21:11:29.287Z,17.43
2023-02-12T21:13:59.301Z,15.10
2023-02-12T21:16:38.694Z,16.47
2023-02-12T21:19:05.620Z,15.27
2023-02-12T21:21:35.518Z,15.03
2023-02-12T21:24:04.568Z,16.27
2023-02-12T21:26:33.380Z,15.67
2023-02-12T21:29:01.982Z,15.43
2023-02-12T21:31:36.923Z,15.83
2023-02-12T21:34:05.930Z,16.43
2023-02-12T21:36:35.879Z,16.33
2023-02-12T21:39:03.782Z,15.70
2023-02-12T21:41:35.607Z,15.00
2023-02-12T21:44:06.135Z,15.00
2023-02-12T21:46:35.004Z,15.27
2023-02-12T21:49:02.220Z,14.30
2023-02-12T21:51:32.592Z,15.27
2023-02-12T21:54:02.958Z,14.60
2023-02-12T21:56:30.356Z,14.90
2023-02-12T21:58:59.369Z,15.57
2023-02-12T22:01:29.206Z,13.87
2023-02-12T22:03:56.172Z,15.87
2023-02-12T22:06:24.778Z,15.93
2023-02-12T22:08:53.268Z,15.43
2023-02-12T22:11:22.212Z,14.83
2023-02-12T22:13:49.651Z,15.93
2023-02-12T22:16:21.150Z,15.50
2023-02-12T22:18:49.267Z,14.70
2023-02-12T22:21:17.057Z,14.70
2023-02-12T22:23:44.829Z,14.23
2023-02-12T22:26:24.685Z,14.63
2023-02-12T22:28:54.966Z,14.87
2023-02-12T22:31:25.272Z,14.73
2023-02-12T22:33:55.345Z,14.37
2023-02-12T22:36:22.319Z,14.97
2023-02-12T22:38:49.361Z,13.10
2023-02-12T22:41:16.827Z,14.10
2023-02-12T22:43:44.058Z,13.63
2023-02-12T22:46:13.244Z,14.17
2023-02-12T22:48:40.699Z,14.40
2023-02-12T22:51:11.978Z,15.60
2023-02-12T22:53:38.910Z,14.53
2023-02-12T22:56:08.114Z,14.40
2023-02-12T22:58:35.413Z,15.50
2023-02-12T23:01:11.426Z,15.90
2023-02-12T23:03:38.758Z,14.60
2023-02-12T23:06:08.287Z,13.93
2023-02-12T23:08:35.521Z,15.03
2023-02-12T23:11:02.368Z,14.00
2023-02-12T23:13:30.254Z,14.70
2023-02-12T23:15:57.870Z,13.63
2023-02-12T23:18:25.310Z,13.87
2023-02-12T23:20:52.774Z,14.07
2023-02-12T23:23:21.054Z,15.33
2023-02-12T23:25:48.376Z,15.60
2023-02-12T23:28:15.852Z,17.43
2023-02-12T23:30:43.262Z,17.73
2023-02-12T23:33:10.271Z,15.97
2023-02-12T23:35:37.072Z,16.10
2023-02-12T23:38:04.559Z,15.23
2023-02-12T23:40:34.656Z,14.77
2023-02-12T23:43:01.543Z,13.80
2023-02-12T23:45:28.918Z,15.53
2023-02-12T23:47:56.295Z,14.47
2023-02-12T23:50:23.579Z,13.67
2023-02-12T23:52:51.037Z,13.67
2023-02-12T23:55:20.208Z,13.50
2023-02-12T23:57:47.824Z,14.17
